Hlavní strana
METAR-TAF:

METAR-TAF

Letiště :

Tarvisio, Itálie

zeměpisná šířka: 46-30N, zeměpisná délka: 013-35E, výška: 777 m

Aktuální stav počasí

Zpráva byla vytvořena před 20 minutami, v 16:55 UTC
Severovýchodní vítr 5 kt
Teplota 2°C
Vlhkost vzduchu 64%
Tlak 1025 hPa
Viditelnost 10 km a více
Oblačno až skoro zataženo ve výšce 3000 ft

METAR: LIVO 171655Z 05005KT 9999 BKN030 02/M04 Q1025 RMK BKN VIS MIN 9999

Čas: 18:15 (17:15 UTC)


TAF: chybějící

Stav a předpovědi počasí z více než 4 000 letišť (zprávy METAR a TAF).

Červené a žluté tečky na mapě představují dostupné meteorologické stanice.

Když kurzor umístíte na tečku, zobrazí se název stanice.

Pak kliknutím zobrazíte stav a předpověď počasí.

Chcete-li změnit mapu, kliknutím na zelené tlačítko se znaménkem +mapu přiblížíte, kliknutím na zelené tlačítko se znaménkem – mapu oddálíte a kliknutím na zelené šipky přejdete na sousední mapy.


METAR-TAF: